x

Lake Winnipeg S. Basin (45140) Wave Buoy

9:00am - Sun 20th Aug 2017 All times are UTC.

  • Sig Wave height 2.6ft
  • Peak Period 4s
  • Wind
    22mph, 27mph gusts
  • Sea Temp 72°f
  • Air Temp 68°f
  • Sea Pressure 1006.2mb

More Historic Weather Station data

Upgrade to MSW Pro to gain access to the past 30 days of data for over 8000 Wavebouys and Weather Stations around the globe.

Join

Comparision Forecast

View Surf forecast
   
Sun 08/20 9:00am 2.5ft 4s 22 27 mph 1006.2mb 72f 68f
8:00am 2.5ft 4s 22 27 mph 1005.4mb 72f 69f
7:00am 2.5ft 3s 18 22 mph 1004.7mb 72f 69f
6:00am 2ft 4s 25 29 mph 1003.8mb 72f 71f
5:00am 2.5ft 4s 11 16 mph 1003.1mb 72f 72f
3:00am 2.5ft 4s 20 22 mph 1001.6mb 72f 76f
2:00am 2.5ft 4s 20 22 mph 1001.5mb 72f 77f
1:00am 2ft 4s 18 20 mph 1001.5mb 72f 77f
12:00am 1.6ft 3s 18 22 mph 1001.6mb 72f 78f
Sat 08/19 11:00pm 1.3ft 3s 16 18 mph 1002mb 73f 77f
10:00pm 1ft 3s 13 18 mph 1002.7mb 73f 77f
9:00pm 1.3ft 3s 11 13 mph 1003.4mb 72f 76f
8:00pm 1.3ft 3s 13 16 mph 1003.9mb 72f 75f
7:00pm 1.3ft 3s 13 16 mph 1004.7mb 72f 74f
6:00pm 1.6ft 3s 13 16 mph 1005.4mb 72f 72f
5:00pm 1.3ft 3s 16 18 mph 1006mb 72f 71f
4:00pm 1.3ft 3s 16 18 mph 1006.3mb 72f 69f
3:00pm 1.3ft 3s 16 18 mph 1006.7mb 72f 69f
2:00pm 1ft 3s 13 18 mph 1006.9mb 72f 70f
1:00pm 1ft 3s 9 11 mph 1007.3mb 72f 70f
12:00pm 1.3ft 3s 11 13 mph 1007.3mb 72f 70f
11:00am 1.3ft 3s 11 13 mph 1007.2mb 72f 70f
10:00am 1.3ft 3s 13 13 mph 1007.1mb 72f 71f
9:00am 1ft 3s 13 16 mph 1007.3mb 72f 71f
8:00am 1ft 3s 13 13 mph 1007.6mb 72f 72f
7:00am 0.7ft 2s 9 13 mph 1007.8mb 72f 72f
6:00am 0.3ft 2s 9 11 mph 1008.1mb 72f 71f
5:00am 0.3ft 2s 9 9 mph 1008mb 73f 73f
4:00am 0.3ft 2s 7 9 mph 1008.1mb 73f 73f
3:00am 0.7ft 2s 7 9 mph 1008.2mb 74f 74f
2:00am 0.3ft 3s 9 11 mph 1008mb 75f 74f
1:00am  -  2s 11 13 mph 1007.9mb 76f 76f
12:00am  -  2s 9 9 mph 1007.9mb - 76f
Fri 08/18 11:00pm 0.3ft 2s 4 7 mph 1008mb - 77f
10:00pm 0.3ft 2s 2 4 mph 1008.2mb - 76f
9:00pm 0.3ft 2s 4 7 mph 1008.2mb - 75f
8:00pm 0.3ft 2s 7 9 mph 1008.5mb - 75f
7:00pm 0.3ft 2s 2 4 mph 1008.8mb 77f 73f
6:00pm 0.3ft 2s 2 4 mph 1008.7mb 74f 71f
5:00pm 0.3ft 2s 2 2 mph 1008.9mb 73f 69f
4:00pm 0.7ft 2s 7 7 mph 1008.9mb 72f 67f
3:00pm 1ft 3s 9 9 mph 1008.9mb 72f 66f
2:00pm 1ft 2s 9 11 mph 1008.9mb 72f 66f
1:00pm 1ft 2s 11 13 mph 1008.7mb 72f 67f
12:00pm 0.7ft 2s 9 11 mph 1008.5mb 72f 68f
11:00am 0.7ft 2s 9 11 mph 1008mb 72f 69f
10:00am 0.7ft 2s 11 13 mph 1007.7mb 72f 70f
9:00am 0.7ft 2s 9 11 mph 1007.7mb 72f 70f
8:00am 0.7ft 2s 7 9 mph 1008.1mb 72f 70f
7:00am 0.3ft 2s 9 13 mph 1008.6mb 73f 69f
6:00am 0.3ft 2s 2 4 mph 1008.4mb 73f 71f
5:00am 0.3ft 2s 7 9 mph 1008.7mb 73f 72f
4:00am 0.3ft 2s 9 11 mph 1008.8mb 74f 72f
3:00am 0.3ft 3s 9 9 mph 1008.9mb 74f 74f
2:00am  -  4s 7 9 mph 1008.8mb 74f 74f
1:00am  -  3s 7 7 mph 1008.6mb 75f 75f
12:00am  -  2s 4 7 mph 1008.7mb 75f 75f
Thu 08/17 11:00pm  -  2s 4 7 mph 1009.1mb 75f 75f
10:00pm  -  2s 7 9 mph 1009.2mb 75f 73f
9:00pm 0.3ft 2s 4 7 mph 1009.2mb 75f 73f
8:00pm 0.3ft 2s 4 7 mph 1009.4mb 76f 71f
7:00pm 0.3ft 2s 4 7 mph 1009.8mb 74f 70f
6:00pm 0.3ft 2s 7 9 mph 1010.2mb 73f 68f
5:00pm 0.3ft 2s 7 9 mph 1010.2mb 73f 66f
4:00pm 0.3ft 2s 7 9 mph 1010.3mb 72f 66f
3:00pm 0.3ft 2s 9 9 mph 1010.4mb 72f 66f
2:00pm 0.3ft 2s 7 9 mph 1010.4mb 72f 66f
1:00pm 0.7ft 3s 4 7 mph 1010.4mb 71f 66f
12:00pm 0.7ft 3s 4 7 mph 1010.4mb 71f 65f
11:00am 0.7ft 3s 4 4 mph 1010.2mb 72f 64f
10:00am 1ft 3s 7 9 mph 1010.2mb 72f 65f
9:00am 1.3ft 3s 9 13 mph 1010.2mb 72f 65f
8:00am 1.3ft 3s 11 13 mph 1010.5mb 72f 66f
7:00am 1.6ft 3s 13 16 mph 1010.8mb 72f 66f
6:00am 1.6ft 3s 16 18 mph 1010.9mb 72f 67f
5:00am 1.6ft 4s 13 18 mph 1010.6mb 72f 67f
4:00am 1.6ft 3s 13 18 mph 1010.8mb 72f 67f
3:00am 1.6ft 3s 16 18 mph 1010.7mb 72f 67f
2:00am 1.3ft 2s 16 20 mph 1010.7mb 72f 69f
1:00am 0.3ft 2s 16 20 mph 1010.7mb 72f 71f
12:00am 0.3ft 2s 9 11 mph 1010.9mb 73f 72f
Wed 08/16 11:00pm 0.3ft 2s 7 9 mph 1010.9mb 73f 71f
10:00pm 0.3ft 2s 9 9 mph 1011.3mb 73f 71f
9:00pm 0.7ft 2s 7 7 mph 1011.4mb 73f 70f
8:00pm 1ft 3s 7 9 mph 1011.7mb 72f 70f
7:00pm 1.3ft 3s 9 11 mph 1012.1mb 72f 69f
6:00pm 1.3ft 3s 13 16 mph 1012.4mb 72f 69f
5:00pm 1.6ft 3s 13 16 mph 1012.7mb 72f 67f
4:00pm 1.3ft 3s 18 20 mph 1012.5mb 72f 66f
3:00pm 1.3ft 3s 16 18 mph 1012.7mb 72f 66f
2:00pm 1.3ft 3s 16 18 mph 1012.7mb 72f 65f
1:00pm 1.6ft 3s 16 20 mph 1013.3mb 72f 65f
12:00pm 1.3ft 3s 16 18 mph 1013mb 72f 66f
11:00am 1ft 2s 13 16 mph 1012.7mb 72f 67f